sensor_id;sensor_type;location;lat;lon;timestamp;pressure;altitude;pressure_sealevel;temperature;humidity
75942;BME280;64622;46.220;19.878;2023-03-13T00:01:38;100924.53;;;-0.56;81.33
75942;BME280;64622;46.220;19.878;2023-03-13T00:04:05;100923.06;;;-0.62;81.56
75942;BME280;64622;46.220;19.878;2023-03-13T00:06:34;100930.50;;;-0.71;82.17
75942;BME280;64622;46.220;19.878;2023-03-13T00:09:03;100925.50;;;-0.76;82.32
75942;BME280;64622;46.220;19.878;2023-03-13T00:11:31;100920.19;;;-0.93;82.90
75942;BME280;64622;46.220;19.878;2023-03-13T00:14:00;100923.44;;;-0.88;83.14
75942;BME280;64622;46.220;19.878;2023-03-13T00:16:28;100917.56;;;-0.93;83.22
75942;BME280;64622;46.220;19.878;2023-03-13T00:18:57;100929.25;;;-0.81;82.97
75942;BME280;64622;46.220;19.878;2023-03-13T00:21:26;100934.44;;;-0.80;83.06
75942;BME280;64622;46.220;19.878;2023-03-13T00:23:53;100934.69;;;-0.67;82.18
75942;BME280;64622;46.220;19.878;2023-03-13T00:26:25;100938.59;;;-0.57;81.66
75942;BME280;64622;46.220;19.878;2023-03-13T00:28:53;100937.84;;;-0.59;81.73
75942;BME280;64622;46.220;19.878;2023-03-13T00:31:27;100938.72;;;-0.42;81.56
75942;BME280;64622;46.220;19.878;2023-03-13T00:34:00;100933.84;;;-0.32;81.24
75942;BME280;64622;46.220;19.878;2023-03-13T00:36:32;100925.50;;;-0.23;80.57
75942;BME280;64622;46.220;19.878;2023-03-13T00:39:01;100933.91;;;-0.15;80.36
75942;BME280;64622;46.220;19.878;2023-03-13T00:41:32;100936.66;;;-0.01;80.18
75942;BME280;64622;46.220;19.878;2023-03-13T00:43:58;100946.28;;;0.00;80.33
75942;BME280;64622;46.220;19.878;2023-03-13T00:46:27;100948.13;;;-0.02;79.89
75942;BME280;64622;46.220;19.878;2023-03-13T00:48:55;100936.53;;;-0.15;80.51
75942;BME280;64622;46.220;19.878;2023-03-13T00:51:23;100918.94;;;-0.15;80.24
75942;BME280;64622;46.220;19.878;2023-03-13T00:53:52;100916.16;;;-0.12;79.70
75942;BME280;64622;46.220;19.878;2023-03-13T00:56:19;100910.28;;;-0.17;79.92
75942;BME280;64622;46.220;19.878;2023-03-13T00:58:48;100933.72;;;-0.12;79.75
75942;BME280;64622;46.220;19.878;2023-03-13T01:03:52;100932.84;;;-0.30;81.00
75942;BME280;64622;46.220;19.878;2023-03-13T01:06:25;100929.75;;;-0.37;81.36
75942;BME280;64622;46.220;19.878;2023-03-13T01:08:53;100934.28;;;-0.41;81.69
75942;BME280;64622;46.220;19.878;2023-03-13T01:11:26;100924.87;;;-0.45;82.10
75942;BME280;64622;46.220;19.878;2023-03-13T01:13:55;100934.72;;;-0.32;82.08
75942;BME280;64622;46.220;19.878;2023-03-13T01:16:23;100931.03;;;-0.28;81.63
75942;BME280;64622;46.220;19.878;2023-03-13T01:18:52;100928.53;;;-0.31;81.92
75942;BME280;64622;46.220;19.878;2023-03-13T01:21:21;100931.31;;;-0.17;81.32
75942;BME280;64622;46.220;19.878;2023-03-13T01:23:49;100935.16;;;-0.24;81.79
75942;BME280;64622;46.220;19.878;2023-03-13T01:26:17;100934.47;;;-0.27;82.31
75942;BME280;64622;46.220;19.878;2023-03-13T01:28:44;100929.78;;;-0.21;81.83
75942;BME280;64622;46.220;19.878;2023-03-13T01:31:12;100924.59;;;-0.22;81.84
75942;BME280;64622;46.220;19.878;2023-03-13T01:33:40;100927.91;;;-0.19;82.33
75942;BME280;64622;46.220;19.878;2023-03-13T01:36:07;100922.66;;;-0.19;82.74
75942;BME280;64622;46.220;19.878;2023-03-13T01:38:36;100905.84;;;-0.16;82.96
75942;BME280;64622;46.220;19.878;2023-03-13T01:41:04;100908.28;;;-0.12;83.10
75942;BME280;64622;46.220;19.878;2023-03-13T01:43:33;100903.25;;;0.01;82.63
75942;BME280;64622;46.220;19.878;2023-03-13T01:51:09;100886.50;;;0.19;81.97
75942;BME280;64622;46.220;19.878;2023-03-13T01:53:40;100892.16;;;0.28;82.11
75942;BME280;64622;46.220;19.878;2023-03-13T01:56:12;100892.66;;;0.35;82.59
75942;BME280;64622;46.220;19.878;2023-03-13T01:58:40;100894.47;;;0.34;82.38
75942;BME280;64622;46.220;19.878;2023-03-13T02:01:08;100910.28;;;0.50;81.78
75942;BME280;64622;46.220;19.878;2023-03-13T02:03:36;100918.56;;;0.59;81.31
75942;BME280;64622;46.220;19.878;2023-03-13T02:06:04;100917.38;;;0.65;81.12
75942;BME280;64622;46.220;19.878;2023-03-13T02:08:39;100913.28;;;0.59;81.44
75942;BME280;64622;46.220;19.878;2023-03-13T02:13:38;100922.84;;;0.77;80.59
75942;BME280;64622;46.220;19.878;2023-03-13T02:16:05;100918.09;;;0.68;80.96
75942;BME280;64622;46.220;19.878;2023-03-13T02:18:32;100913.50;;;0.72;82.13
75942;BME280;64622;46.220;19.878;2023-03-13T02:21:07;100922.41;;;0.69;82.07
75942;BME280;64622;46.220;19.878;2023-03-13T02:23:41;100918.84;;;0.70;81.96
75942;BME280;64622;46.220;19.878;2023-03-13T02:26:12;100918.56;;;0.75;82.47
75942;BME280;64622;46.220;19.878;2023-03-13T02:28:39;100911.19;;;0.66;83.10
75942;BME280;64622;46.220;19.878;2023-03-13T02:31:07;100912.34;;;0.60;83.84
75942;BME280;64622;46.220;19.878;2023-03-13T02:33:39;100903.91;;;0.38;84.93
75942;BME280;64622;46.220;19.878;2023-03-13T02:36:07;100912.03;;;0.34;85.63
75942;BME280;64622;46.220;19.878;2023-03-13T02:38:40;100912.03;;;0.34;85.85
75942;BME280;64622;46.220;19.878;2023-03-13T02:41:08;100905.81;;;0.35;85.39
75942;BME280;64622;46.220;19.878;2023-03-13T02:43:37;100886.34;;;0.22;86.29
75942;BME280;64622;46.220;19.878;2023-03-13T02:48:39;100906.81;;;0.32;85.64
75942;BME280;64622;46.220;19.878;2023-03-13T02:53:49;100893.31;;;0.23;86.12
75942;BME280;64622;46.220;19.878;2023-03-13T02:56:19;100903.91;;;0.21;86.01
75942;BME280;64622;46.220;19.878;2023-03-13T02:58:48;100904.38;;;0.12;85.83
75942;BME280;64622;46.220;19.878;2023-03-13T03:01:17;100915.00;;;0.11;86.47
75942;BME280;64622;46.220;19.878;2023-03-13T03:03:45;100903.62;;;-0.07;87.08
75942;BME280;64622;46.220;19.878;2023-03-13T03:06:12;100915.72;;;-0.03;86.91
75942;BME280;64622;46.220;19.878;2023-03-13T03:08:39;100917.78;;;-0.09;87.30
75942;BME280;64622;46.220;19.878;2023-03-13T03:11:07;100912.84;;;-0.15;87.46
75942;BME280;64622;46.220;19.878;2023-03-13T03:13:34;100906.97;;;-0.20;87.67
75942;BME280;64622;46.220;19.878;2023-03-13T03:16:09;100912.13;;;-0.19;88.10
75942;BME280;64622;46.220;19.878;2023-03-13T03:18:37;100919.19;;;-0.19;88.04
75942;BME280;64622;46.220;19.878;2023-03-13T03:21:04;100918.72;;;-0.10;87.42
75942;BME280;64622;46.220;19.878;2023-03-13T03:23:35;100904.78;;;-0.12;86.95
75942;BME280;64622;46.220;19.878;2023-03-13T03:26:03;100905.66;;;-0.12;86.88
75942;BME280;64622;46.220;19.878;2023-03-13T03:28:31;100916.22;;;0.04;86.19
75942;BME280;64622;46.220;19.878;2023-03-13T03:31:06;100905.09;;;-0.01;86.18
75942;BME280;64622;46.220;19.878;2023-03-13T03:33:35;100902.78;;;-0.07;87.02
75942;BME280;64622;46.220;19.878;2023-03-13T03:36:05;100886.31;;;-0.28;88.19
75942;BME280;64622;46.220;19.878;2023-03-13T03:38:33;100894.56;;;-0.35;89.16
75942;BME280;64622;46.220;19.878;2023-03-13T03:41:00;100894.09;;;-0.43;89.74
75942;BME280;64622;46.220;19.878;2023-03-13T03:43:27;100891.53;;;-0.45;89.94
75942;BME280;64622;46.220;19.878;2023-03-13T03:45:54;100898.28;;;-0.39;89.36
75942;BME280;64622;46.220;19.878;2023-03-13T03:48:22;100904.41;;;-0.22;88.46
75942;BME280;64622;46.220;19.878;2023-03-13T03:50:48;100906.03;;;-0.19;88.25
75942;BME280;64622;46.220;19.878;2023-03-13T03:53:15;100913.84;;;-0.17;88.13
75942;BME280;64622;46.220;19.878;2023-03-13T03:55:43;100914.53;;;-0.14;87.96
75942;BME280;64622;46.220;19.878;2023-03-13T03:58:10;100923.38;;;-0.15;88.07
75942;BME280;64622;46.220;19.878;2023-03-13T04:00:38;100910.81;;;-0.27;88.64
75942;BME280;64622;46.220;19.878;2023-03-13T04:03:05;100910.97;;;-0.13;88.10
75942;BME280;64622;46.220;19.878;2023-03-13T04:05:32;100900.47;;;-0.13;87.97
75942;BME280;64622;46.220;19.878;2023-03-13T04:07:58;100896.28;;;-0.17;88.63
75942;BME280;64622;46.220;19.878;2023-03-13T04:10:26;100900.09;;;-0.22;88.93
75942;BME280;64622;46.220;19.878;2023-03-13T04:12:53;100900.97;;;-0.24;89.21
75942;BME280;64622;46.220;19.878;2023-03-13T04:15:20;100893.50;;;-0.14;88.89
75942;BME280;64622;46.220;19.878;2023-03-13T04:17:47;100894.50;;;-0.17;88.70
75942;BME280;64622;46.220;19.878;2023-03-13T04:20:15;100901.53;;;-0.17;89.09
75942;BME280;64622;46.220;19.878;2023-03-13T04:22:42;100900.84;;;-0.21;89.03
75942;BME280;64622;46.220;19.878;2023-03-13T04:25:10;100906.47;;;-0.11;88.91
75942;BME280;64622;46.220;19.878;2023-03-13T04:27:37;100907.87;;;-0.04;88.72
75942;BME280;64622;46.220;19.878;2023-03-13T04:30:05;100897.97;;;-0.16;88.99
75942;BME280;64622;46.220;19.878;2023-03-13T04:32:33;100908.66;;;-0.19;89.20
75942;BME280;64622;46.220;19.878;2023-03-13T04:35:01;100915.84;;;-0.22;89.68
75942;BME280;64622;46.220;19.878;2023-03-13T04:37:28;100918.75;;;-0.29;89.87
75942;BME280;64622;46.220;19.878;2023-03-13T04:39:55;100920.78;;;-0.34;90.46
75942;BME280;64622;46.220;19.878;2023-03-13T04:42:22;100918.25;;;-0.35;90.82
75942;BME280;64622;46.220;19.878;2023-03-13T04:44:49;100901.03;;;-0.42;91.02
75942;BME280;64622;46.220;19.878;2023-03-13T04:47:17;100912.59;;;-0.11;90.09
75942;BME280;64622;46.220;19.878;2023-03-13T04:49:44;100891.47;;;-0.26;90.28
75942;BME280;64622;46.220;19.878;2023-03-13T04:52:11;100902.84;;;-0.26;90.90
75942;BME280;64622;46.220;19.878;2023-03-13T04:54:39;100886.12;;;-0.25;90.87
75942;BME280;64622;46.220;19.878;2023-03-13T04:57:06;100893.88;;;-0.05;90.19
75942;BME280;64622;46.220;19.878;2023-03-13T04:59:33;100896.81;;;-0.11;90.56
75942;BME280;64622;46.220;19.878;2023-03-13T05:02:00;100887.56;;;-0.17;90.44
75942;BME280;64622;46.220;19.878;2023-03-13T05:04:29;100901.16;;;-0.10;90.28
75942;BME280;64622;46.220;19.878;2023-03-13T05:06:56;100883.28;;;-0.03;89.67
75942;BME280;64622;46.220;19.878;2023-03-13T05:09:23;100892.22;;;0.10;89.06
75942;BME280;64622;46.220;19.878;2023-03-13T05:11:50;100902.53;;;0.14;88.81
75942;BME280;64622;46.220;19.878;2023-03-13T05:14:17;100901.87;;;0.26;88.20
75942;BME280;64622;46.220;19.878;2023-03-13T05:16:45;100903.91;;;0.21;88.39
75942;BME280;64622;46.220;19.878;2023-03-13T05:19:12;100917.59;;;0.28;88.32
75942;BME280;64622;46.220;19.878;2023-03-13T05:21:39;100921.31;;;0.24;88.24
75942;BME280;64622;46.220;19.878;2023-03-13T05:24:06;100922.25;;;0.23;88.23
75942;BME280;64622;46.220;19.878;2023-03-13T05:26:33;100935.50;;;0.38;87.92
75942;BME280;64622;46.220;19.878;2023-03-13T05:29:00;100944.63;;;0.48;87.29
75942;BME280;64622;46.220;19.878;2023-03-13T05:31:27;100939.75;;;0.41;87.47
75942;BME280;64622;46.220;19.878;2023-03-13T05:33:55;100928.59;;;0.36;87.63
75942;BME280;64622;46.220;19.878;2023-03-13T05:36:22;100939.13;;;0.36;87.67
75942;BME280;64622;46.220;19.878;2023-03-13T05:38:49;100952.91;;;0.41;87.96
75942;BME280;64622;46.220;19.878;2023-03-13T05:41:16;100960.78;;;0.58;87.05
75942;BME280;64622;46.220;19.878;2023-03-13T05:43:43;100949.34;;;0.74;86.57
75942;BME280;64622;46.220;19.878;2023-03-13T05:46:10;100953.22;;;0.84;85.69
75942;BME280;64622;46.220;19.878;2023-03-13T05:48:37;100950.50;;;0.86;85.54
75942;BME280;64622;46.220;19.878;2023-03-13T05:51:04;100959.44;;;0.99;84.78
75942;BME280;64622;46.220;19.878;2023-03-13T05:53:31;100952.13;;;1.04;84.61
75942;BME280;64622;46.220;19.878;2023-03-13T05:56:00;100954.25;;;1.13;84.16
75942;BME280;64622;46.220;19.878;2023-03-13T05:58:28;100949.75;;;1.15;84.20
75942;BME280;64622;46.220;19.878;2023-03-13T06:00:56;100954.09;;;1.16;83.77
75942;BME280;64622;46.220;19.878;2023-03-13T06:03:24;100951.81;;;1.25;83.93
75942;BME280;64622;46.220;19.878;2023-03-13T06:05:57;100955.72;;;1.34;83.59
75942;BME280;64622;46.220;19.878;2023-03-13T06:08:25;100937.25;;;1.34;82.88
75942;BME280;64622;46.220;19.878;2023-03-13T06:10:53;100948.22;;;1.57;82.27
75942;BME280;64622;46.220;19.878;2023-03-13T06:13:20;100942.72;;;1.91;80.63
75942;BME280;64622;46.220;19.878;2023-03-13T06:15:55;100956.84;;;2.20;79.02
75942;BME280;64622;46.220;19.878;2023-03-13T06:18:24;100960.47;;;2.33;77.75
75942;BME280;64622;46.220;19.878;2023-03-13T06:20:56;100966.00;;;2.58;76.86
75942;BME280;64622;46.220;19.878;2023-03-13T06:23:23;100972.81;;;2.62;75.89
75942;BME280;64622;46.220;19.878;2023-03-13T06:25:50;100970.53;;;2.84;75.84
75942;BME280;64622;46.220;19.878;2023-03-13T06:28:17;100979.13;;;3.01;74.76
75942;BME280;64622;46.220;19.878;2023-03-13T06:30:44;100975.44;;;3.04;75.87
75942;BME280;64622;46.220;19.878;2023-03-13T06:33:10;100986.13;;;3.30;74.92
75942;BME280;64622;46.220;19.878;2023-03-13T06:35:41;100981.22;;;3.24;73.87
75942;BME280;64622;46.220;19.878;2023-03-13T06:38:09;100971.75;;;3.20;73.39
75942;BME280;64622;46.220;19.878;2023-03-13T06:40:35;100965.50;;;3.49;74.16
75942;BME280;64622;46.220;19.878;2023-03-13T06:43:02;100968.31;;;3.46;73.32
75942;BME280;64622;46.220;19.878;2023-03-13T06:45:29;100980.50;;;3.89;72.40
75942;BME280;64622;46.220;19.878;2023-03-13T06:47:55;100977.38;;;4.09;70.55
75942;BME280;64622;46.220;19.878;2023-03-13T06:50:23;100993.78;;;4.53;69.38
75942;BME280;64622;46.220;19.878;2023-03-13T06:52:50;100989.03;;;4.71;70.32
75942;BME280;64622;46.220;19.878;2023-03-13T06:55:17;100977.59;;;4.70;68.68
75942;BME280;64622;46.220;19.878;2023-03-13T06:57:43;100979.19;;;4.85;67.64
75942;BME280;64622;46.220;19.878;2023-03-13T07:00:14;100984.25;;;4.63;68.63
75942;BME280;64622;46.220;19.878;2023-03-13T07:02:41;100982.03;;;4.57;67.67
75942;BME280;64622;46.220;19.878;2023-03-13T07:05:08;100991.16;;;4.66;67.84
75942;BME280;64622;46.220;19.878;2023-03-13T07:07:41;100994.03;;;5.00;67.23
75942;BME280;64622;46.220;19.878;2023-03-13T07:10:10;100990.53;;;4.87;67.45
75942;BME280;64622;46.220;19.878;2023-03-13T07:12:37;100995.72;;;5.01;67.11
75942;BME280;64622;46.220;19.878;2023-03-13T07:15:05;100993.09;;;5.50;65.49
75942;BME280;64622;46.220;19.878;2023-03-13T07:17:32;101000.66;;;5.43;64.96
75942;BME280;64622;46.220;19.878;2023-03-13T07:19:58;100987.94;;;5.36;64.90
75942;BME280;64622;46.220;19.878;2023-03-13T07:22:25;100993.22;;;5.48;64.66
75942;BME280;64622;46.220;19.878;2023-03-13T07:24:52;100986.91;;;5.62;63.83
75942;BME280;64622;46.220;19.878;2023-03-13T07:27:19;100986.66;;;5.41;63.73
75942;BME280;64622;46.220;19.878;2023-03-13T07:29:46;100967.00;;;5.44;64.01
75942;BME280;64622;46.220;19.878;2023-03-13T07:32:13;100978.47;;;5.93;63.00
75942;BME280;64622;46.220;19.878;2023-03-13T07:34:40;100973.47;;;5.76;61.91
75942;BME280;64622;46.220;19.878;2023-03-13T07:37:13;100980.31;;;6.03;62.43
75942;BME280;64622;46.220;19.878;2023-03-13T07:39:41;100962.09;;;6.10;62.60
75942;BME280;64622;46.220;19.878;2023-03-13T07:42:10;100957.06;;;6.63;61.68
75942;BME280;64622;46.220;19.878;2023-03-13T07:44:37;100959.56;;;6.08;60.40
75942;BME280;64622;46.220;19.878;2023-03-13T07:47:04;100941.84;;;6.20;60.46
75942;BME280;64622;46.220;19.878;2023-03-13T07:49:32;100957.31;;;6.26;61.28
75942;BME280;64622;46.220;19.878;2023-03-13T07:52:01;100942.78;;;6.53;61.63
75942;BME280;64622;46.220;19.878;2023-03-13T07:54:28;100945.03;;;6.82;59.13
75942;BME280;64622;46.220;19.878;2023-03-13T07:56:54;100952.13;;;6.70;57.82
75942;BME280;64622;46.220;19.878;2023-03-13T07:59:20;100964.62;;;7.13;55.00
75942;BME280;64622;46.220;19.878;2023-03-13T08:01:48;100952.59;;;7.52;55.89
75942;BME280;64622;46.220;19.878;2023-03-13T08:04:15;100953.44;;;7.63;55.36
75942;BME280;64622;46.220;19.878;2023-03-13T08:06:41;100969.09;;;7.35;52.84
75942;BME280;64622;46.220;19.878;2023-03-13T08:09:08;100951.16;;;7.37;52.94
75942;BME280;64622;46.220;19.878;2023-03-13T08:11:37;100953.13;;;7.24;51.79
75942;BME280;64622;46.220;19.878;2023-03-13T08:14:05;100951.31;;;7.36;53.48
75942;BME280;64622;46.220;19.878;2023-03-13T08:16:33;100951.91;;;7.39;52.09
75942;BME280;64622;46.220;19.878;2023-03-13T08:19:02;100955.87;;;7.44;50.33
75942;BME280;64622;46.220;19.878;2023-03-13T08:21:32;100958.13;;;8.13;50.61
75942;BME280;64622;46.220;19.878;2023-03-13T08:24:02;100951.03;;;8.35;49.82
75942;BME280;64622;46.220;19.878;2023-03-13T08:26:32;100956.88;;;8.29;50.10
75942;BME280;64622;46.220;19.878;2023-03-13T08:29:02;100957.53;;;8.21;49.33
75942;BME280;64622;46.220;19.878;2023-03-13T08:31:34;100944.50;;;7.96;51.45
75942;BME280;64622;46.220;19.878;2023-03-13T08:34:02;100948.87;;;8.29;51.66
75942;BME280;64622;46.220;19.878;2023-03-13T08:36:34;100940.59;;;8.43;51.15
75942;BME280;64622;46.220;19.878;2023-03-13T08:39:05;100924.19;;;8.98;48.95
75942;BME280;64622;46.220;19.878;2023-03-13T08:41:35;100935.56;;;9.00;48.09
75942;BME280;64622;46.220;19.878;2023-03-13T08:44:03;100948.25;;;8.36;48.43
75942;BME280;64622;46.220;19.878;2023-03-13T08:46:31;100941.25;;;9.16;46.80
75942;BME280;64622;46.220;19.878;2023-03-13T08:48:59;100927.69;;;9.28;46.02
75942;BME280;64622;46.220;19.878;2023-03-13T08:51:27;100936.31;;;9.02;45.18
75942;BME280;64622;46.220;19.878;2023-03-13T08:53:55;100941.91;;;8.78;47.64
75942;BME280;64622;46.220;19.878;2023-03-13T08:56:24;100926.75;;;8.99;47.69
75942;BME280;64622;46.220;19.878;2023-03-13T08:58:54;100932.53;;;9.44;47.27
75942;BME280;64622;46.220;19.878;2023-03-13T09:01:25;100917.28;;;9.74;47.80
75942;BME280;64622;46.220;19.878;2023-03-13T09:03:52;100931.97;;;9.40;45.89
75942;BME280;64622;46.220;19.878;2023-03-13T09:06:19;100914.63;;;9.35;46.41
75942;BME280;64622;46.220;19.878;2023-03-13T09:08:46;100931.59;;;9.64;45.84
75942;BME280;64622;46.220;19.878;2023-03-13T09:11:15;100913.19;;;9.70;45.94
75942;BME280;64622;46.220;19.878;2023-03-13T09:13:47;100884.34;;;9.64;44.82
75942;BME280;64622;46.220;19.878;2023-03-13T09:16:17;100910.94;;;9.85;43.57
75942;BME280;64622;46.220;19.878;2023-03-13T09:18:44;100919.09;;;9.25;43.09
75942;BME280;64622;46.220;19.878;2023-03-13T09:21:14;100905.28;;;9.10;41.39
75942;BME280;64622;46.220;19.878;2023-03-13T09:23:42;100895.03;;;9.74;42.52
75942;BME280;64622;46.220;19.878;2023-03-13T09:26:09;100881.34;;;10.62;39.42
75942;BME280;64622;46.220;19.878;2023-03-13T09:28:36;100877.47;;;10.28;39.92
75942;BME280;64622;46.220;19.878;2023-03-13T09:31:08;100882.38;;;10.98;39.58
75942;BME280;64622;46.220;19.878;2023-03-13T09:33:35;100876.03;;;9.96;38.06
75942;BME280;64622;46.220;19.878;2023-03-13T09:36:02;100877.28;;;10.49;38.21
75942;BME280;64622;46.220;19.878;2023-03-13T09:38:29;100882.25;;;10.44;38.43
75942;BME280;64622;46.220;19.878;2023-03-13T09:41:02;100874.94;;;10.82;37.00
75942;BME280;64622;46.220;19.878;2023-03-13T09:43:41;100872.53;;;11.16;36.66
75942;BME280;64622;46.220;19.878;2023-03-13T09:46:21;100866.12;;;10.99;34.58
75942;BME280;64622;46.220;19.878;2023-03-13T09:48:52;100870.91;;;11.05;34.52
75942;BME280;64622;46.220;19.878;2023-03-13T09:51:28;100862.50;;;10.91;34.83
75942;BME280;64622;46.220;19.878;2023-03-13T09:56:46;100868.28;;;10.50;36.01
75942;BME280;64622;46.220;19.878;2023-03-13T10:02:35;100864.72;;;11.49;32.72
75942;BME280;64622;46.220;19.878;2023-03-13T10:07:35;100842.28;;;11.95;35.31
75942;BME280;64622;46.220;19.878;2023-03-13T10:10:05;100843.13;;;11.51;31.75
75942;BME280;64622;46.220;19.878;2023-03-13T10:12:41;100829.28;;;11.11;33.77
75942;BME280;64622;46.220;19.878;2023-03-13T10:18:21;100829.94;;;11.22;31.81
75942;BME280;64622;46.220;19.878;2023-03-13T10:20:56;100832.28;;;12.05;31.25
75942;BME280;64622;46.220;19.878;2023-03-13T10:25:50;100839.34;;;12.06;29.32
75942;BME280;64622;46.220;19.878;2023-03-13T10:28:18;100836.25;;;12.18;30.17
75942;BME280;64622;46.220;19.878;2023-03-13T10:30:48;100847.88;;;11.66;30.76
75942;BME280;64622;46.220;19.878;2023-03-13T10:35:58;100836.50;;;12.25;28.78
75942;BME280;64622;46.220;19.878;2023-03-13T10:38:26;100847.22;;;11.55;30.76
75942;BME280;64622;46.220;19.878;2023-03-13T10:40:57;100833.81;;;12.25;29.92
75942;BME280;64622;46.220;19.878;2023-03-13T10:43:27;100832.03;;;12.92;29.74
75942;BME280;64622;46.220;19.878;2023-03-13T10:45:54;100829.44;;;12.75;31.25
75942;BME280;64622;46.220;19.878;2023-03-13T10:48:28;100798.28;;;13.31;30.03
75942;BME280;64622;46.220;19.878;2023-03-13T10:50:56;100836.50;;;12.50;30.44
75942;BME280;64622;46.220;19.878;2023-03-13T10:53:32;100817.66;;;12.42;31.17
75942;BME280;64622;46.220;19.878;2023-03-13T10:56:23;100814.44;;;12.39;32.21
75942;BME280;64622;46.220;19.878;2023-03-13T10:58:51;100817.66;;;12.42;30.49
75942;BME280;64622;46.220;19.878;2023-03-13T11:01:45;100807.13;;;12.82;29.90
75942;BME280;64622;46.220;19.878;2023-03-13T11:04:38;100802.78;;;12.89;30.56
75942;BME280;64622;46.220;19.878;2023-03-13T11:07:13;100790.00;;;12.83;31.17
75942;BME280;64622;46.220;19.878;2023-03-13T11:09:41;100787.31;;;13.09;31.22
75942;BME280;64622;46.220;19.878;2023-03-13T11:12:16;100787.69;;;12.88;31.15
75942;BME280;64622;46.220;19.878;2023-03-13T11:14:44;100764.69;;;12.52;31.82
75942;BME280;64622;46.220;19.878;2023-03-13T11:17:27;100759.47;;;13.26;31.65
75942;BME280;64622;46.220;19.878;2023-03-13T11:23:04;100736.59;;;12.72;32.63
75942;BME280;64622;46.220;19.878;2023-03-13T11:25:56;100706.03;;;13.87;32.69
75942;BME280;64622;46.220;19.878;2023-03-13T11:31:23;100730.09;;;13.80;32.51
75942;BME280;64622;46.220;19.878;2023-03-13T11:34:22;100734.53;;;13.00;32.91
75942;BME280;64622;46.220;19.878;2023-03-13T11:53:50;100716.62;;;13.48;35.82
75942;BME280;64622;46.220;19.878;2023-03-13T12:02:06;100704.53;;;13.84;35.51
75942;BME280;64622;46.220;19.878;2023-03-13T12:04:45;100690.53;;;14.29;36.67
75942;BME280;64622;46.220;19.878;2023-03-13T12:09:56;100697.81;;;13.80;37.45
75942;BME280;64622;46.220;19.878;2023-03-13T12:15:17;100693.75;;;13.84;37.28
75942;BME280;64622;46.220;19.878;2023-03-13T12:20:37;100664.28;;;14.07;38.66
75942;BME280;64622;46.220;19.878;2023-03-13T12:28:19;100657.87;;;14.08;38.54
75942;BME280;64622;46.220;19.878;2023-03-13T12:31:08;100678.66;;;13.67;39.67
75942;BME280;64622;46.220;19.878;2023-03-13T12:33:44;100636.28;;;13.69;40.32
75942;BME280;64622;46.220;19.878;2023-03-13T12:36:21;100647.84;;;14.56;39.10
75942;BME280;64622;46.220;19.878;2023-03-13T12:39:06;100655.59;;;13.81;37.52
75942;BME280;64622;46.220;19.878;2023-03-13T12:41:41;100643.34;;;14.41;37.03
75942;BME280;64622;46.220;19.878;2023-03-13T12:44:13;100642.53;;;14.32;39.00
75942;BME280;64622;46.220;19.878;2023-03-13T12:46:46;100630.75;;;14.33;38.91
75942;BME280;64622;46.220;19.878;2023-03-13T13:00:40;100617.06;;;13.96;39.07
75942;BME280;64622;46.220;19.878;2023-03-13T13:06:06;100605.88;;;14.62;36.84
75942;BME280;64622;46.220;19.878;2023-03-13T13:16:44;100597.03;;;14.76;36.61
75942;BME280;64622;46.220;19.878;2023-03-13T13:24:56;100574.88;;;15.11;36.12
75942;BME280;64622;46.220;19.878;2023-03-13T13:30:02;100577.88;;;14.40;35.44
75942;BME280;64622;46.220;19.878;2023-03-13T13:32:40;100570.00;;;14.39;34.74
75942;BME280;64622;46.220;19.878;2023-03-13T13:35:24;100564.69;;;14.07;36.17
75942;BME280;64622;46.220;19.878;2023-03-13T13:37:52;100545.34;;;14.95;34.97
75942;BME280;64622;46.220;19.878;2023-03-13T13:40:39;100534.28;;;14.90;34.02
75942;BME280;64622;46.220;19.878;2023-03-13T13:43:20;100543.38;;;14.66;34.00
75942;BME280;64622;46.220;19.878;2023-03-13T13:48:36;100530.69;;;15.34;33.37
75942;BME280;64622;46.220;19.878;2023-03-13T13:58:58;100522.78;;;14.96;34.93
75942;BME280;64622;46.220;19.878;2023-03-13T14:01:25;100527.69;;;14.70;34.81
75942;BME280;64622;46.220;19.878;2023-03-13T14:03:53;100521.16;;;14.87;34.75
75942;BME280;64622;46.220;19.878;2023-03-13T14:06:26;100525.94;;;14.54;35.56
75942;BME280;64622;46.220;19.878;2023-03-13T14:09:34;100515.03;;;14.48;35.79
75942;BME280;64622;46.220;19.878;2023-03-13T14:11:59;100509.59;;;14.56;35.35
75942;BME280;64622;46.220;19.878;2023-03-13T14:14:25;100499.09;;;15.06;35.31
75942;BME280;64622;46.220;19.878;2023-03-13T14:16:54;100501.94;;;14.90;35.54
75942;BME280;64622;46.220;19.878;2023-03-13T14:19:29;100502.69;;;14.61;36.07
75942;BME280;64622;46.220;19.878;2023-03-13T14:22:01;100500.47;;;14.65;35.33
75942;BME280;64622;46.220;19.878;2023-03-13T14:24:29;100487.69;;;14.81;35.52
75942;BME280;64622;46.220;19.878;2023-03-13T14:26:55;100490.88;;;14.40;36.16
75942;BME280;64622;46.220;19.878;2023-03-13T14:29:23;100476.72;;;14.60;36.50
75942;BME280;64622;46.220;19.878;2023-03-13T14:31:57;100476.34;;;14.49;36.09
75942;BME280;64622;46.220;19.878;2023-03-13T14:34:26;100468.13;;;15.02;35.75
75942;BME280;64622;46.220;19.878;2023-03-13T14:36:58;100476.72;;;14.60;36.77
75942;BME280;64622;46.220;19.878;2023-03-13T14:42:13;100469.62;;;14.45;36.89
75942;BME280;64622;46.220;19.878;2023-03-13T14:44:42;100473.25;;;14.29;36.90
75942;BME280;64622;46.220;19.878;2023-03-13T14:47:29;100469.50;;;14.61;36.50
75942;BME280;64622;46.220;19.878;2023-03-13T14:49:58;100466.34;;;14.57;37.24
75942;BME280;64622;46.220;19.878;2023-03-13T14:52:27;100472.91;;;14.32;37.01
75942;BME280;64622;46.220;19.878;2023-03-13T14:58:20;100465.00;;;14.31;36.65
75942;BME280;64622;46.220;19.878;2023-03-13T15:00:49;100450.78;;;14.45;36.28